Time,TemperatureF,DewpointF,PressureIn,WindDirection,WindDirectionDegrees,WindSpeedMPH,WindSpeedGustMPH,Humidity,HourlyPrecipIn,Conditions,Clouds,dailyrainin,SolarRadiationWatts/m^2,SoftwareType,DateUTC
2013-04-05 00:00:00,54.2,32.8,29.74,North,-999,0.0,0.0,44,0.00,,,0.00,0.00,VWS V14.01,2013-04-05 06:00:00,
2013-04-05 00:05:00,53.9,33.6,29.73,North,-999,0.0,0.0,46,0.00,,,0.00,0.00,VWS V14.01,2013-04-05 06:05:00,
2013-04-05 00:10:00,53.7,32.9,29.74,North,-999,0.0,0.0,45,0.00,,,0.00,0.00,VWS V14.01,2013-04-05 06:10:00,
2013-04-05 00:15:00,53.3,32.0,29.73,North,-999,3.0,5.0,44,0.00,,,0.00,0.00,VWS V14.01,2013-04-05 06:15:00,
2013-04-05 00:20:00,53.1,32.9,29.73,North,-999,0.0,0.0,46,0.00,,,0.00,0.00,VWS V14.01,2013-04-05 06:20:00,
2013-04-05 00:25:00,53.2,34.0,29.73,North,-999,0.0,0.0,48,0.00,,,0.00,0.00,VWS V14.01,2013-04-05 06:25:00,
2013-04-05 00:30:00,53.5,34.3,29.73,North,-999,0.0,0.0,48,0.00,,,0.00,0.00,VWS V14.01,2013-04-05 06:30:00,
2013-04-05 00:35:00,53.5,33.8,29.73,North,-999,0.0,0.0,47,0.00,,,0.00,0.00,VWS V14.01,2013-04-05 06:35:00,
2013-04-05 00:40:00,53.1,34.0,29.73,North,-999,3.0,5.0,48,0.00,,,0.00,0.00,VWS V14.01,2013-04-05 06:40:00,
2013-04-05 00:45:00,53.3,34.7,29.73,North,-999,3.0,5.0,49,0.00,,,0.00,0.00,VWS V14.01,2013-04-05 06:45:00,
2013-04-05 00:50:00,53.8,34.1,29.73,North,-999,3.0,3.0,47,0.00,,,0.00,0.00,VWS V14.01,2013-04-05 06:50:00,
2013-04-05 00:55:00,53.1,32.3,29.73,North,-999,4.0,6.0,45,0.00,,,0.00,0.00,VWS V14.01,2013-04-05 06:55:00,
2013-04-05 01:00:00,52.7,34.1,29.72,North,-999,0.0,0.0,49,0.00,,,0.00,0.00,VWS V14.01,2013-04-05 07:00:00,
2013-04-05 01:05:00,52.6,33.5,29.72,North,-999,0.0,0.0,48,0.00,,,0.00,0.00,VWS V14.01,2013-04-05 07:05:00,
2013-04-05 01:10:00,52.5,31.2,29.72,North,-999,4.0,4.0,44,0.00,,,0.00,0.00,VWS V14.01,2013-04-05 07:10:00,
2013-04-05 01:15:00,50.5,29.4,29.72,North,-999,4.0,6.0,44,0.00,,,0.00,0.00,VWS V14.01,2013-04-05 07:15:00,
2013-04-05 01:20:00,49.5,29.1,29.72,North,-999,2.0,3.0,45,0.00,,,0.00,0.00,VWS V14.01,2013-04-05 07:20:00,
2013-04-05 01:25:00,48.6,28.8,29.72,North,-999,6.0,7.0,46,0.00,,,0.00,0.00,VWS V14.01,2013-04-05 07:25:00,
2013-04-05 01:30:00,47.7,27.4,29.72,North,-999,5.0,6.0,45,0.00,,,0.00,0.00,VWS V14.01,2013-04-05 07:30:00,
2013-04-05 01:35:00,47.3,28.6,29.72,North,-999,4.0,6.0,48,0.00,,,0.00,0.00,VWS V14.01,2013-04-05 07:35:00,
2013-04-05 01:40:00,47.7,29.5,29.71,North,-999,10.0,11.0,49,0.00,,,0.00,0.00,VWS V14.01,2013-04-05 07:40:00,
2013-04-05 01:45:00,48.0,29.8,29.72,North,-999,7.0,11.0,49,0.00,,,0.00,0.00,VWS V14.01,2013-04-05 07:45:00,
2013-04-05 01:50:00,48.0,29.8,29.71,North,-999,6.0,8.0,49,0.00,,,0.00,0.00,VWS V14.01,2013-04-05 07:50:00,
2013-04-05 01:55:00,48.5,30.2,29.71,North,-999,12.0,13.0,49,0.00,,,0.00,0.00,VWS V14.01,2013-04-05 07:55:00,
2013-04-05 02:00:00,49.6,30.7,29.71,North,-999,13.0,13.0,48,0.00,,,0.00,0.00,VWS V14.01,2013-04-05 08:00:00,
2013-04-05 02:05:00,50.1,30.7,29.71,North,-999,10.0,14.0,47,0.00,,,0.00,0.00,VWS V14.01,2013-04-05 08:05:00,
2013-04-05 02:10:00,50.3,30.9,29.71,North,-999,6.0,11.0,47,0.00,,,0.00,0.00,VWS V14.01,2013-04-05 08:10:00,
2013-04-05 02:15:00,50.5,31.0,29.71,North,-999,9.0,11.0,47,0.00,,,0.00,0.00,VWS V14.01,2013-04-05 08:15:00,
2013-04-05 02:20:00,50.5,31.6,29.71,North,-999,5.0,9.0,48,0.00,,,0.00,0.00,VWS V14.01,2013-04-05 08:20:00,
2013-04-05 02:25:00,50.8,30.8,29.71,North,-999,8.0,10.0,46,0.00,,,0.00,0.00,VWS V14.01,2013-04-05 08:25:00,
2013-04-05 02:30:00,50.6,31.1,29.71,North,-999,4.0,7.0,47,0.00,,,0.00,0.00,VWS V14.01,2013-04-05 08:30:00,
2013-04-05 02:35:00,50.6,32.2,29.71,North,-999,5.0,7.0,49,0.00,,,0.00,0.00,VWS V14.01,2013-04-05 08:35:00,
2013-04-05 02:40:00,50.9,31.9,29.71,North,-999,0.0,0.0,48,0.00,,,0.00,0.00,VWS V14.01,2013-04-05 08:40:00,
2013-04-05 02:45:00,51.3,32.3,29.71,North,-999,0.0,4.0,48,0.00,,,0.00,0.00,VWS V14.01,2013-04-05 08:45:00,
2013-04-05 02:50:00,51.5,32.5,29.71,North,-999,3.0,5.0,48,0.00,,,0.00,0.00,VWS V14.01,2013-04-05 08:50:00,
2013-04-05 02:55:00,51.5,32.5,29.71,North,-999,6.0,7.0,48,0.00,,,0.00,0.00,VWS V14.01,2013-04-05 08:55:00,
2013-04-05 03:00:00,52.0,32.9,29.70,North,-999,4.0,6.0,48,0.00,,,0.00,0.00,VWS V14.01,2013-04-05 09:00:00,
2013-04-05 03:05:00,52.7,33.0,29.71,North,-999,6.0,8.0,47,0.00,,,0.00,0.00,VWS V14.01,2013-04-05 09:05:00,
2013-04-05 03:10:00,53.1,32.9,29.71,North,-999,2.0,6.0,46,0.00,,,0.00,0.00,VWS V14.01,2013-04-05 09:10:00,
2013-04-05 03:15:00,53.6,33.3,29.71,North,-999,0.0,6.0,46,0.00,,,0.00,0.00,VWS V14.01,2013-04-05 09:15:00,
2013-04-05 03:20:00,53.7,32.9,29.71,North,-999,0.0,0.0,45,0.00,,,0.00,0.00,VWS V14.01,2013-04-05 09:20:00,
2013-04-05 03:25:00,53.6,32.8,29.71,North,-999,2.0,2.0,45,0.00,,,0.00,0.00,VWS V14.01,2013-04-05 09:25:00,
2013-04-05 03:30:00,53.3,32.5,29.71,North,-999,4.0,5.0,45,0.00,,,0.00,0.00,VWS V14.01,2013-04-05 09:30:00,
2013-04-05 03:35:00,53.4,32.6,29.71,North,-999,3.0,5.0,45,0.00,,,0.00,0.00,VWS V14.01,2013-04-05 09:35:00,
2013-04-05 03:40:00,53.5,32.7,29.70,North,-999,2.0,5.0,45,0.00,,,0.00,0.00,VWS V14.01,2013-04-05 09:40:00,
2013-04-05 03:45:00,53.9,33.1,29.70,North,-999,3.0,6.0,45,0.00,,,0.00,0.00,VWS V14.01,2013-04-05 09:45:00,
2013-04-05 03:50:00,54.1,32.7,29.70,North,-999,3.0,4.0,44,0.00,,,0.00,0.00,VWS V14.01,2013-04-05 09:50:00,
2013-04-05 03:55:00,54.2,32.8,29.70,North,-999,2.0,5.0,44,0.00,,,0.00,0.00,VWS V14.01,2013-04-05 09:55:00,
2013-04-05 04:00:00,54.1,32.7,29.70,North,-999,0.0,0.0,44,0.00,,,0.00,0.00,VWS V14.01,2013-04-05 10:00:00,
2013-04-05 04:05:00,53.9,32.5,29.70,North,-999,0.0,0.0,44,0.00,,,0.00,0.00,VWS V14.01,2013-04-05 10:05:00,
2013-04-05 04:10:00,53.6,31.7,29.70,North,-999,0.0,0.0,43,0.00,,,0.00,0.00,VWS V14.01,2013-04-05 10:10:00,
2013-04-05 04:15:00,52.8,32.1,29.70,North,-999,3.0,3.0,45,0.00,,,0.00,0.00,VWS V14.01,2013-04-05 10:15:00,
2013-04-05 04:20:00,51.5,31.4,29.70,North,-999,4.0,6.0,46,0.00,,,0.00,0.00,VWS V14.01,2013-04-05 10:20:00,
2013-04-05 04:25:00,51.0,32.0,29.70,North,-999,2.0,6.0,48,0.00,,,0.00,0.00,VWS V14.01,2013-04-05 10:25:00,
2013-04-05 04:30:00,51.5,32.0,29.70,North,-999,0.0,3.0,47,0.00,,,0.00,0.00,VWS V14.01,2013-04-05 10:30:00,
2013-04-05 04:35:00,51.7,32.7,29.70,North,-999,4.0,5.0,48,0.00,,,0.00,0.00,VWS V14.01,2013-04-05 10:35:00,
2013-04-05 04:40:00,52.2,32.6,29.70,North,-999,0.0,5.0,47,0.00,,,0.00,0.00,VWS V14.01,2013-04-05 10:40:00,
2013-04-05 04:45:00,52.5,32.9,29.70,North,-999,0.0,5.0,47,0.00,,,0.00,0.00,VWS V14.01,2013-04-05 10:45:00,
2013-04-05 04:50:00,52.6,32.4,29.69,North,-999,0.0,0.0,46,0.00,,,0.00,0.00,VWS V14.01,2013-04-05 10:50:00,
2013-04-05 04:55:00,52.6,33.0,29.69,North,-999,0.0,0.0,47,0.00,,,0.00,0.00,VWS V14.01,2013-04-05 10:55:00,
2013-04-05 05:00:00,52.4,32.8,29.70,North,-999,0.0,0.0,47,0.00,,,0.00,0.00,VWS V14.01,2013-04-05 11:00:00,
2013-04-05 05:05:00,51.8,32.2,29.70,North,-999,6.0,6.0,47,0.00,,,0.00,0.00,VWS V14.01,2013-04-05 11:05:00,
2013-04-05 05:10:00,50.7,30.7,29.70,North,-999,6.0,6.0,46,0.00,,,0.00,0.00,VWS V14.01,2013-04-05 11:10:00,
2013-04-05 05:15:00,49.3,31.5,29.70,North,-999,9.0,11.0,50,0.00,,,0.00,0.00,VWS V14.01,2013-04-05 11:15:00,
2013-04-05 05:20:00,49.5,32.1,29.70,North,-999,10.0,11.0,51,0.00,,,0.00,0.00,VWS V14.01,2013-04-05 11:20:00,
2013-04-05 05:25:00,49.7,32.3,29.70,North,-999,9.0,11.0,51,0.00,,,0.00,0.00,VWS V14.01,2013-04-05 11:25:00,
2013-04-05 05:30:00,49.1,31.8,29.69,North,-999,4.0,4.0,51,0.00,,,0.00,0.00,VWS V14.01,2013-04-05 11:30:00,
2013-04-05 05:35:00,48.9,32.5,29.69,North,-999,5.0,5.0,53,0.00,,,0.00,0.00,VWS V14.01,2013-04-05 11:35:00,
2013-04-05 05:40:00,48.7,30.9,29.69,North,-999,3.0,4.0,50,0.00,,,0.00,0.00,VWS V14.01,2013-04-05 11:40:00,
2013-04-05 05:45:00,49.0,33.1,29.69,North,-999,7.0,8.0,54,0.00,,,0.00,0.00,VWS V14.01,2013-04-05 11:45:00,
2013-04-05 05:50:00,50.6,33.6,29.69,North,-999,8.0,8.0,52,0.00,,,0.00,0.00,VWS V14.01,2013-04-05 11:50:00,
2013-04-05 05:55:00,51.1,33.1,29.69,North,-999,5.0,8.0,50,0.00,,,0.00,0.00,VWS V14.01,2013-04-05 11:55:00,
2013-04-05 06:00:00,50.3,32.9,29.69,North,-999,7.0,10.0,51,0.00,,,0.00,0.00,VWS V14.01,2013-04-05 12:00:00,
2013-04-05 06:05:00,49.4,33.0,29.69,North,-999,9.0,10.0,53,0.00,,,0.00,0.00,VWS V14.01,2013-04-05 12:05:00,
2013-04-05 06:10:00,49.5,32.6,29.68,North,-999,9.0,10.0,52,0.00,,,0.00,0.00,VWS V14.01,2013-04-05 12:10:00,
2013-04-05 06:15:00,49.5,32.1,29.68,North,-999,9.0,10.0,51,0.00,,,0.00,0.00,VWS V14.01,2013-04-05 12:15:00,
2013-04-05 06:20:00,49.6,32.2,29.68,North,-999,10.0,10.0,51,0.00,,,0.00,0.00,VWS V14.01,2013-04-05 12:20:00,
2013-04-05 06:25:00,49.9,32.5,29.68,North,-999,9.0,11.0,51,0.00,,,0.00,0.00,VWS V14.01,2013-04-05 12:25:00,
2013-04-05 06:30:00,49.8,32.4,29.68,North,-999,6.0,9.0,51,0.00,,,0.00,0.00,VWS V14.01,2013-04-05 12:30:00,
2013-04-05 06:35:00,49.2,32.3,29.68,North,-999,9.0,10.0,52,0.00,,,0.00,0.00,VWS V14.01,2013-04-05 12:35:00,
2013-04-05 06:40:00,49.6,33.2,29.68,North,-999,13.0,13.0,53,0.00,,,0.00,0.00,VWS V14.01,2013-04-05 12:40:00,
2013-04-05 06:45:00,51.3,34.3,29.68,North,-999,14.0,17.0,52,0.00,,,0.00,0.00,VWS V14.01,2013-04-05 12:45:00,
2013-04-05 06:50:00,52.6,34.0,29.68,North,-999,14.0,15.0,49,0.00,,,0.00,0.00,VWS V14.01,2013-04-05 12:50:00,
2013-04-05 06:55:00,52.6,34.0,29.68,North,-999,15.0,16.0,49,0.00,,,0.00,0.00,VWS V14.01,2013-04-05 12:55:00,
2013-04-05 07:00:00,53.0,34.4,29.68,North,-999,15.0,19.0,49,0.00,,,0.00,0.00,VWS V14.01,2013-04-05 13:00:00,
2013-04-05 07:05:00,53.6,33.9,29.67,North,-999,16.0,20.0,47,0.00,,,0.00,0.00,VWS V14.01,2013-04-05 13:05:00,
2013-04-05 07:10:00,54.7,34.3,29.68,North,-999,15.0,21.0,46,0.00,,,0.00,0.00,VWS V14.01,2013-04-05 13:10:00,
2013-04-05 07:15:00,55.3,34.3,29.68,North,-999,17.0,24.0,45,0.00,,,0.00,5.00,VWS V14.01,2013-04-05 13:15:00,
2013-04-05 07:20:00,55.3,34.3,29.68,North,-999,20.0,23.0,45,0.00,,,0.00,7.00,VWS V14.01,2013-04-05 13:20:00,
2013-04-05 07:25:00,55.6,34.0,29.68,North,-999,16.0,23.0,44,0.00,,,0.00,9.00,VWS V14.01,2013-04-05 13:25:00,
2013-04-05 07:30:00,55.3,33.8,29.68,North,-999,18.0,20.0,44,0.00,,,0.00,11.00,VWS V14.01,2013-04-05 13:30:00,
2013-04-05 07:35:00,55.5,34.0,29.68,North,-999,22.0,29.0,44,0.00,,,0.00,14.00,VWS V14.01,2013-04-05 13:35:00,
2013-04-05 07:40:00,55.5,34.5,29.68,North,-999,23.0,28.0,45,0.00,,,0.00,18.00,VWS V14.01,2013-04-05 13:40:00,
2013-04-05 07:45:00,55.3,34.3,29.68,North,-999,18.0,28.0,45,0.00,,,0.00,21.00,VWS V14.01,2013-04-05 13:45:00,
2013-04-05 07:50:00,55.1,34.7,29.68,North,-999,28.0,31.0,46,0.00,,,0.00,19.00,VWS V14.01,2013-04-05 13:50:00,
2013-04-05 07:55:00,55.2,34.8,29.68,North,-999,24.0,33.0,46,0.00,,,0.00,28.00,VWS V14.01,2013-04-05 13:55:00,
2013-04-05 08:00:00,55.1,34.7,29.68,North,-999,22.0,31.0,46,0.00,,,0.00,39.00,VWS V14.01,2013-04-05 14:00:00,
2013-04-05 08:05:00,55.3,34.9,29.68,North,-999,23.0,31.0,46,0.00,,,0.00,44.00,VWS V14.01,2013-04-05 14:05:00,
2013-04-05 08:10:00,55.5,35.1,29.68,North,-999,25.0,30.0,46,0.00,,,0.00,46.00,VWS V14.01,2013-04-05 14:10:00,
2013-04-05 08:15:00,55.4,35.0,29.67,North,-999,30.0,30.0,46,0.00,,,0.00,35.00,VWS V14.01,2013-04-05 14:15:00,
2013-04-05 08:20:00,55.3,34.9,29.67,North,-999,27.0,28.0,46,0.00,,,0.00,28.00,VWS V14.01,2013-04-05 14:20:00,
2013-04-05 08:25:00,55.1,34.7,29.67,North,-999,17.0,28.0,46,0.00,,,0.00,26.00,VWS V14.01,2013-04-05 14:25:00,
2013-04-05 08:30:00,55.0,35.2,29.66,North,-999,17.0,20.0,47,0.00,,,0.00,30.00,VWS V14.01,2013-04-05 14:30:00,
2013-04-05 08:35:00,54.9,35.1,29.66,North,-999,12.0,20.0,47,0.00,,,0.00,42.00,VWS V14.01,2013-04-05 14:35:00,
2013-04-05 08:40:00,54.8,35.5,29.66,North,-999,12.0,16.0,48,0.00,,,0.00,47.00,VWS V14.01,2013-04-05 14:40:00,
2013-04-05 08:45:00,54.8,35.5,29.66,North,-999,13.0,17.0,48,0.00,,,0.00,53.00,VWS V14.01,2013-04-05 14:45:00,
2013-04-05 08:50:00,55.1,35.2,29.67,North,-999,18.0,18.0,47,0.00,,,0.00,53.00,VWS V14.01,2013-04-05 14:50:00,
2013-04-05 08:55:00,55.2,35.9,29.66,North,-999,21.0,21.0,48,0.00,,,0.00,54.00,VWS V14.01,2013-04-05 14:55:00,
2013-04-05 09:00:00,55.1,35.8,29.66,North,-999,19.0,21.0,48,0.00,,,0.00,62.00,VWS V14.01,2013-04-05 15:00:00,
2013-04-05 09:05:00,55.1,35.8,29.66,North,-999,18.0,22.0,48,0.00,,,0.00,69.00,VWS V14.01,2013-04-05 15:05:00,
2013-04-05 09:10:00,55.1,35.8,29.66,North,-999,16.0,21.0,48,0.00,,,0.00,77.00,VWS V14.01,2013-04-05 15:10:00,
2013-04-05 09:15:00,55.3,36.0,29.66,North,-999,20.0,23.0,48,0.00,,,0.00,95.00,VWS V14.01,2013-04-05 15:15:00,
2013-04-05 09:20:00,55.4,36.6,29.66,North,-999,20.0,24.0,49,0.00,,,0.00,105.00,VWS V14.01,2013-04-05 15:20:00,
2013-04-05 09:25:00,55.5,36.2,29.66,North,-999,19.0,24.0,48,0.00,,,0.00,113.00,VWS V14.01,2013-04-05 15:25:00,
2013-04-05 09:30:00,55.7,36.3,29.66,North,-999,22.0,23.0,48,0.00,,,0.00,123.00,VWS V14.01,2013-04-05 15:30:00,
2013-04-05 09:35:00,55.9,36.0,29.66,North,-999,15.0,27.0,47,0.00,,,0.00,155.00,VWS V14.01,2013-04-05 15:35:00,
2013-04-05 09:40:00,56.2,36.3,29.66,North,-999,18.0,23.0,47,0.00,,,0.00,160.00,VWS V14.01,2013-04-05 15:40:00,
2013-04-05 09:45:00,56.7,35.6,29.66,North,-999,18.0,23.0,45,0.00,,,0.00,179.00,VWS V14.01,2013-04-05 15:45:00,
2013-04-05 09:50:00,57.0,35.9,29.66,North,-999,16.0,20.0,45,0.00,,,0.00,200.00,VWS V14.01,2013-04-05 15:50:00,
2013-04-05 09:55:00,57.3,36.2,29.66,North,-999,20.0,24.0,45,0.00,,,0.00,213.00,VWS V14.01,2013-04-05 15:55:00,
2013-04-05 10:00:00,57.4,36.2,29.66,North,-999,23.0,24.0,45,0.00,,,0.00,209.00,VWS V14.01,2013-04-05 16:00:00,
2013-04-05 10:05:00,57.3,36.2,29.66,North,-999,20.0,25.0,45,0.00,,,0.00,223.00,VWS V14.01,2013-04-05 16:05:00,
2013-04-05 10:10:00,57.2,36.6,29.66,North,-999,21.0,24.0,46,0.00,,,0.00,237.00,VWS V14.01,2013-04-05 16:10:00,
2013-04-05 10:15:00,57.6,36.4,29.66,North,-999,19.0,25.0,45,0.00,,,0.00,237.00,VWS V14.01,2013-04-05 16:15:00,
2013-04-05 10:20:00,57.8,36.6,29.66,North,-999,16.0,24.0,45,0.00,,,0.00,236.00,VWS V14.01,2013-04-05 16:20:00,
2013-04-05 10:25:00,58.3,36.5,29.65,North,-999,22.0,25.0,44,0.00,,,0.00,218.00,VWS V14.01,2013-04-05 16:25:00,
2013-04-05 10:30:00,58.2,36.4,29.66,North,-999,20.0,21.0,44,0.00,,,0.00,190.00,VWS V14.01,2013-04-05 16:30:00,
2013-04-05 10:35:00,58.6,36.2,29.65,North,-999,16.0,23.0,43,0.00,,,0.00,181.00,VWS V14.01,2013-04-05 16:35:00,
2013-04-05 10:40:00,58.3,36.5,29.66,North,-999,16.0,17.0,44,0.00,,,0.00,209.00,VWS V14.01,2013-04-05 16:40:00,
2013-04-05 10:45:00,58.4,36.6,29.65,North,-999,21.0,22.0,44,0.00,,,0.00,229.00,VWS V14.01,2013-04-05 16:45:00,
2013-04-05 10:50:00,58.7,36.3,29.65,North,-999,12.0,21.0,43,0.00,,,0.00,239.00,VWS V14.01,2013-04-05 16:50:00,
2013-04-05 10:55:00,59.0,36.6,29.65,North,-999,19.0,22.0,43,0.00,,,0.00,250.00,VWS V14.01,2013-04-05 16:55:00,
2013-04-05 11:00:00,59.1,36.0,29.65,North,-999,16.0,24.0,42,0.00,,,0.00,209.00,VWS V14.01,2013-04-05 17:00:00,
2013-04-05 11:05:00,59.1,36.0,29.65,North,-999,17.0,24.0,42,0.00,,,0.00,192.00,VWS V14.01,2013-04-05 17:05:00,
2013-04-05 11:10:00,58.9,35.9,29.65,North,-999,18.0,19.0,42,0.00,,,0.00,193.00,VWS V14.01,2013-04-05 17:10:00,
2013-04-05 11:15:00,58.9,35.9,29.66,North,-999,15.0,20.0,42,0.00,,,0.00,206.00,VWS V14.01,2013-04-05 17:15:00,
2013-04-05 11:20:00,59.1,36.0,29.65,North,-999,17.0,19.0,42,0.00,,,0.00,232.00,VWS V14.01,2013-04-05 17:20:00,
2013-04-05 11:25:00,59.2,35.5,29.65,North,-999,14.0,19.0,41,0.00,,,0.00,267.00,VWS V14.01,2013-04-05 17:25:00,
2013-04-05 11:30:00,59.4,36.3,29.65,North,-999,14.0,21.0,42,0.00,,,0.00,352.00,VWS V14.01,2013-04-05 17:30:00,
2013-04-05 11:35:00,60.1,36.3,29.65,North,-999,18.0,21.0,41,0.00,,,0.00,415.00,VWS V14.01,2013-04-05 17:35:00,
2013-04-05 11:40:00,60.5,35.4,29.66,North,-999,20.0,24.0,39,0.00,,,0.00,352.00,VWS V14.01,2013-04-05 17:40:00,
2013-04-05 11:45:00,60.7,35.0,29.65,North,-999,20.0,24.0,38,0.00,,,0.00,322.00,VWS V14.01,2013-04-05 17:45:00,
2013-04-05 11:50:00,60.4,34.0,29.65,North,-999,14.0,23.0,37,0.00,,,0.00,316.00,VWS V14.01,2013-04-05 17:50:00,
2013-04-05 11:55:00,60.8,34.4,29.64,North,-999,16.0,28.0,37,0.00,,,0.00,302.00,VWS V14.01,2013-04-05 17:55:00,
2013-04-05 12:00:00,60.4,34.7,29.64,North,-999,14.0,22.0,38,0.00,,,0.00,316.00,VWS V14.01,2013-04-05 18:00:00,
2013-04-05 12:05:00,59.7,34.7,29.64,North,-999,15.0,22.0,39,0.00,,,0.00,362.00,VWS V14.01,2013-04-05 18:05:00,
2013-04-05 12:10:00,59.7,34.7,29.64,North,-999,20.0,21.0,39,0.00,,,0.00,381.00,VWS V14.01,2013-04-05 18:10:00,
2013-04-05 12:15:00,59.5,34.5,29.64,North,-999,14.0,22.0,39,0.00,,,0.00,373.00,VWS V14.01,2013-04-05 18:15:00,
2013-04-05 12:20:00,59.8,35.5,29.64,North,-999,16.0,19.0,40,0.00,,,0.00,371.00,VWS V14.01,2013-04-05 18:20:00,
2013-04-05 12:25:00,59.8,34.8,29.64,North,-999,19.0,19.0,39,0.00,,,0.00,367.00,VWS V14.01,2013-04-05 18:25:00,
2013-04-05 12:30:00,59.7,34.7,29.64,North,-999,12.0,19.0,39,0.00,,,0.00,438.00,VWS V14.01,2013-04-05 18:30:00,
2013-04-05 12:35:00,60.3,35.3,29.64,North,-999,15.0,19.0,39,0.00,,,0.00,459.00,VWS V14.01,2013-04-05 18:35:00,
2013-04-05 12:40:00,60.3,35.3,29.63,North,-999,10.0,14.0,39,0.00,,,0.00,422.00,VWS V14.01,2013-04-05 18:40:00,
2013-04-05 12:45:00,60.3,35.3,29.63,North,-999,9.0,17.0,39,0.00,,,0.00,396.00,VWS V14.01,2013-04-05 18:45:00,
2013-04-05 12:50:00,60.2,35.2,29.63,North,-999,15.0,16.0,39,0.00,,,0.00,343.00,VWS V14.01,2013-04-05 18:50:00,
2013-04-05 12:55:00,60.2,35.2,29.63,North,-999,13.0,16.0,39,0.00,,,0.00,387.00,VWS V14.01,2013-04-05 18:55:00,
2013-04-05 13:00:00,60.2,34.5,29.63,North,-999,10.0,16.0,38,0.00,,,0.00,534.00,VWS V14.01,2013-04-05 19:00:00,
2013-04-05 13:05:00,60.1,35.1,29.62,North,-999,10.0,17.0,39,0.00,,,0.00,499.00,VWS V14.01,2013-04-05 19:05:00,
2013-04-05 13:10:00,60.5,34.8,29.62,North,-999,11.0,15.0,38,0.00,,,0.00,487.00,VWS V14.01,2013-04-05 19:10:00,
2013-04-05 13:15:00,60.6,34.9,29.62,North,-999,13.0,15.0,38,0.00,,,0.00,431.00,VWS V14.01,2013-04-05 19:15:00,
2013-04-05 13:20:00,60.4,36.0,29.62,North,-999,12.0,16.0,40,0.00,,,0.00,422.00,VWS V14.01,2013-04-05 19:20:00,
2013-04-05 13:25:00,60.3,35.9,29.62,North,-999,16.0,20.0,40,0.00,,,0.00,452.00,VWS V14.01,2013-04-05 19:25:00,
2013-04-05 13:30:00,60.2,36.4,29.62,North,-999,13.0,16.0,41,0.00,,,0.00,480.00,VWS V14.01,2013-04-05 19:30:00,
2013-04-05 13:35:00,60.5,36.1,29.62,North,-999,16.0,18.0,40,0.00,,,0.00,675.00,VWS V14.01,2013-04-05 19:35:00,
2013-04-05 13:40:00,60.7,37.5,29.62,North,-999,12.0,19.0,42,0.00,,,0.00,557.00,VWS V14.01,2013-04-05 19:40:00,
2013-04-05 13:45:00,60.7,36.9,29.62,North,-999,17.0,19.0,41,0.00,,,0.00,469.00,VWS V14.01,2013-04-05 19:45:00,
2013-04-05 13:50:00,60.5,37.3,29.62,North,-999,21.0,21.0,42,0.00,,,0.00,352.00,VWS V14.01,2013-04-05 19:50:00,
2013-04-05 13:55:00,59.7,37.2,29.62,North,-999,18.0,21.0,43,0.00,,,0.00,279.00,VWS V14.01,2013-04-05 19:55:00,
2013-04-05 14:00:00,59.3,38.0,29.62,North,-999,21.0,24.0,45,0.00,,,0.00,237.00,VWS V14.01,2013-04-05 20:00:00,
2013-04-05 14:05:00,58.8,37.0,29.63,North,-999,13.0,24.0,44,0.00,,,0.00,186.00,VWS V14.01,2013-04-05 20:05:00,
2013-04-05 14:10:00,58.7,37.4,29.63,North,-999,21.0,27.0,45,0.00,,,0.00,162.00,VWS V14.01,2013-04-05 20:10:00,
2013-04-05 14:15:00,57.9,37.3,29.64,North,-999,20.0,28.0,46,0.00,,,0.00,95.00,VWS V14.01,2013-04-05 20:15:00,
2013-04-05 14:20:00,57.9,37.8,29.64,North,-999,14.0,22.0,47,0.00,,,0.00,74.00,VWS V14.01,2013-04-05 20:20:00,
2013-04-05 14:25:00,56.6,37.7,29.64,North,-999,20.0,30.0,49,0.00,,,0.00,181.00,VWS V14.01,2013-04-05 20:25:00,
2013-04-05 14:30:00,55.2,39.8,29.65,North,-999,18.0,22.0,56,0.00,,,0.00,390.00,VWS V14.01,2013-04-05 20:30:00,
2013-04-05 14:35:00,54.4,40.4,29.65,North,-999,22.0,22.0,59,0.00,,,0.00,392.00,VWS V14.01,2013-04-05 20:35:00,
2013-04-05 14:40:00,54.0,40.4,29.65,North,-999,13.0,18.0,60,0.00,,,0.00,392.00,VWS V14.01,2013-04-05 20:40:00,
2013-04-05 14:45:00,54.9,40.0,29.64,North,-999,14.0,20.0,57,0.00,,,0.00,468.00,VWS V14.01,2013-04-05 20:45:00,
2013-04-05 14:50:00,56.1,38.2,29.64,North,-999,17.0,19.0,51,0.00,,,0.00,673.00,VWS V14.01,2013-04-05 20:50:00,
2013-04-05 14:55:00,57.1,38.1,29.64,North,-999,14.0,19.0,49,0.00,,,0.00,598.00,VWS V14.01,2013-04-05 20:55:00,
2013-04-05 15:00:00,57.5,36.9,29.64,North,-999,17.0,22.0,46,0.00,,,0.00,645.00,VWS V14.01,2013-04-05 21:00:00,
2013-04-05 15:05:00,57.7,38.2,29.64,North,-999,13.0,22.0,48,0.00,,,0.00,812.00,VWS V14.01,2013-04-05 21:05:00,
2013-04-05 15:10:00,57.5,39.0,29.65,North,-999,17.0,20.0,50,0.00,,,0.00,547.00,VWS V14.01,2013-04-05 21:10:00,
2013-04-05 15:15:00,57.2,39.2,29.65,North,-999,22.0,25.0,51,0.00,,,0.00,448.00,VWS V14.01,2013-04-05 21:15:00,
2013-04-05 15:20:00,55.9,39.0,29.65,North,-999,26.0,31.0,53,0.00,,,0.00,431.00,VWS V14.01,2013-04-05 21:20:00,
2013-04-05 15:25:00,54.9,39.0,29.65,North,-999,24.0,34.0,55,0.00,,,0.00,369.00,VWS V14.01,2013-04-05 21:25:00,
2013-04-05 15:30:00,53.8,38.5,29.65,North,-999,22.0,32.0,56,0.00,,,0.00,679.00,VWS V14.01,2013-04-05 21:30:00,
2013-04-05 15:35:00,54.2,38.9,29.65,North,-999,26.0,32.0,56,0.00,,,0.00,584.00,VWS V14.01,2013-04-05 21:35:00,
2013-04-05 15:40:00,54.3,38.5,29.65,North,-999,25.0,31.0,55,0.00,,,0.00,522.00,VWS V14.01,2013-04-05 21:40:00,
2013-04-05 15:45:00,53.7,38.4,29.65,North,-999,20.0,34.0,56,0.00,,,0.00,163.00,VWS V14.01,2013-04-05 21:45:00,
2013-04-05 15:50:00,53.5,37.8,29.65,North,-999,21.0,25.0,55,0.00,,,0.00,346.00,VWS V14.01,2013-04-05 21:50:00,
2013-04-05 15:55:00,53.8,37.6,29.65,North,-999,18.0,33.0,54,0.00,,,0.00,223.00,VWS V14.01,2013-04-05 21:55:00,
2013-04-05 16:00:00,53.9,37.2,29.65,North,-999,21.0,30.0,53,0.00,,,0.00,141.00,VWS V14.01,2013-04-05 22:00:00,
2013-04-05 16:05:00,53.6,38.3,29.65,North,-999,12.0,31.0,56,0.00,,,0.00,297.00,VWS V14.01,2013-04-05 22:05:00,
2013-04-05 16:10:00,53.9,38.1,29.65,North,-999,19.0,29.0,55,0.00,,,0.00,330.00,VWS V14.01,2013-04-05 22:10:00,
2013-04-05 16:15:00,54.4,38.6,29.66,North,-999,25.0,29.0,55,0.00,,,0.00,237.00,VWS V14.01,2013-04-05 22:15:00,
2013-04-05 16:20:00,54.5,37.2,29.65,North,-999,21.0,31.0,52,0.00,,,0.00,132.00,VWS V14.01,2013-04-05 22:20:00,
2013-04-05 16:25:00,54.2,37.9,29.65,North,-999,19.0,31.0,54,0.00,,,0.00,353.00,VWS V14.01,2013-04-05 22:25:00,
2013-04-05 16:30:00,55.0,38.2,29.65,North,-999,30.0,33.0,53,0.00,,,0.00,452.00,VWS V14.01,2013-04-05 22:30:00,
2013-04-05 16:35:00,55.5,36.7,29.64,North,-999,26.0,33.0,49,0.00,,,0.00,506.00,VWS V14.01,2013-04-05 22:35:00,
2013-04-05 16:40:00,54.8,37.0,29.64,North,-999,31.0,33.0,51,0.00,,,0.00,427.00,VWS V14.01,2013-04-05 22:40:00,
2013-04-05 16:45:00,55.3,36.5,29.64,North,-999,22.0,33.0,49,0.00,,,0.00,366.00,VWS V14.01,2013-04-05 22:45:00,
2013-04-05 16:50:00,56.1,36.2,29.64,North,-999,23.0,27.0,47,0.00,,,0.00,515.00,VWS V14.01,2013-04-05 22:50:00,
2013-04-05 16:55:00,56.6,35.0,29.65,North,-999,16.0,31.0,44,0.00,,,0.00,496.00,VWS V14.01,2013-04-05 22:55:00,
2013-04-05 17:00:00,56.9,34.1,29.64,North,-999,18.0,25.0,42,0.00,,,0.00,483.00,VWS V14.01,2013-04-05 23:00:00,
2013-04-05 17:05:00,57.7,33.6,29.64,North,-999,20.0,30.0,40,0.00,,,0.00,471.00,VWS V14.01,2013-04-05 23:05:00,
2013-04-05 17:10:00,57.5,33.4,29.64,North,-999,16.0,27.0,40,0.00,,,0.00,450.00,VWS V14.01,2013-04-05 23:10:00,
2013-04-05 17:15:00,57.5,32.8,29.65,North,-999,22.0,32.0,39,0.00,,,0.00,443.00,VWS V14.01,2013-04-05 23:15:00,
2013-04-05 17:20:00,57.7,32.9,29.65,North,-999,20.0,28.0,39,0.00,,,0.00,459.00,VWS V14.01,2013-04-05 23:20:00,
2013-04-05 17:25:00,58.0,33.2,29.66,North,-999,25.0,28.0,39,0.00,,,0.00,476.00,VWS V14.01,2013-04-05 23:25:00,
2013-04-05 17:30:00,57.8,31.0,29.66,North,-999,25.0,34.0,36,0.00,,,0.00,295.00,VWS V14.01,2013-04-05 23:30:00,
2013-04-05 17:35:00,59.2,30.1,29.66,North,-999,18.0,34.0,33,0.00,,,0.00,515.00,VWS V14.01,2013-04-05 23:35:00,
2013-04-05 17:40:00,59.1,31.5,29.65,North,-999,24.0,30.0,35,0.00,,,0.00,459.00,VWS V14.01,2013-04-05 23:40:00,
2013-04-05 17:45:00,58.4,31.6,29.66,North,-999,18.0,30.0,36,0.00,,,0.00,459.00,VWS V14.01,2013-04-05 23:45:00,
2013-04-05 17:50:00,58.1,32.7,29.66,North,-999,22.0,27.0,38,0.00,,,0.00,510.00,VWS V14.01,2013-04-05 23:50:00,
2013-04-05 17:55:00,57.4,32.7,29.67,North,-999,22.0,27.0,39,0.00,,,0.00,468.00,VWS V14.01,2013-04-05 23:55:00,
2013-04-05 18:00:00,57.2,32.5,29.68,North,-999,17.0,24.0,39,0.00,,,0.00,350.00,VWS V14.01,2013-04-06 00:00:00,
2013-04-05 18:05:00,56.8,30.8,29.68,North,-999,15.0,28.0,37,0.00,,,0.00,179.00,VWS V14.01,2013-04-06 00:05:00,
2013-04-05 18:10:00,56.5,30.6,29.68,North,-999,14.0,20.0,37,0.00,,,0.00,144.00,VWS V14.01,2013-04-06 00:10:00,
2013-04-05 18:15:00,56.1,30.2,29.68,North,-999,11.0,20.0,37,0.00,,,0.00,121.00,VWS V14.01,2013-04-06 00:15:00,
2013-04-05 18:20:00,56.3,29.0,29.68,North,-999,10.0,16.0,35,0.00,,,0.00,144.00,VWS V14.01,2013-04-06 00:20:00,
2013-04-05 18:25:00,56.5,28.5,29.68,North,-999,13.0,17.0,34,0.00,,,0.00,93.00,VWS V14.01,2013-04-06 00:25:00,
2013-04-05 18:30:00,55.7,31.1,29.68,North,-999,20.0,20.0,39,0.00,,,0.00,81.00,VWS V14.01,2013-04-06 00:30:00,
2013-04-05 18:35:00,54.7,30.9,29.69,North,-999,16.0,20.0,40,0.00,,,0.00,77.00,VWS V14.01,2013-04-06 00:35:00,
2013-04-05 18:40:00,54.8,30.3,29.69,North,-999,21.0,21.0,39,0.00,,,0.00,69.00,VWS V14.01,2013-04-06 00:40:00,
2013-04-05 18:45:00,54.6,30.8,29.69,North,-999,16.0,24.0,40,0.00,,,0.00,53.00,VWS V14.01,2013-04-06 00:45:00,
2013-04-05 18:50:00,54.5,30.7,29.69,North,-999,19.0,26.0,40,0.00,,,0.00,39.00,VWS V14.01,2013-04-06 00:50:00,
2013-04-05 18:55:00,54.2,30.4,29.70,North,-999,14.0,26.0,40,0.00,,,0.00,30.00,VWS V14.01,2013-04-06 00:55:00,
2013-04-05 19:00:00,54.4,30.0,29.70,North,-999,15.0,19.0,39,0.00,,,0.00,74.00,VWS V14.01,2013-04-06 01:00:00,
2013-04-05 19:05:00,54.8,29.7,29.70,North,-999,17.0,22.0,38,0.00,,,0.00,26.00,VWS V14.01,2013-04-06 01:05:00,
2013-04-05 19:10:00,54.8,29.7,29.70,North,-999,19.0,22.0,38,0.00,,,0.00,46.00,VWS V14.01,2013-04-06 01:10:00,
2013-04-05 19:15:00,54.9,29.8,29.70,North,-999,16.0,23.0,38,0.00,,,0.00,25.00,VWS V14.01,2013-04-06 01:15:00,
2013-04-05 19:20:00,54.9,29.8,29.70,North,-999,17.0,21.0,38,0.00,,,0.00,21.00,VWS V14.01,2013-04-06 01:20:00,
2013-04-05 19:25:00,54.7,29.6,29.70,North,-999,22.0,26.0,38,0.00,,,0.00,18.00,VWS V14.01,2013-04-06 01:25:00,
2013-04-05 19:30:00,54.4,29.3,29.70,North,-999,19.0,21.0,38,0.00,,,0.00,12.00,VWS V14.01,2013-04-06 01:30:00,
2013-04-05 19:35:00,54.1,29.7,29.71,North,-999,13.0,21.0,39,0.00,,,0.00,9.00,VWS V14.01,2013-04-06 01:35:00,
2013-04-05 19:40:00,53.7,29.4,29.71,North,-999,13.0,14.0,39,0.00,,,0.00,7.00,VWS V14.01,2013-04-06 01:40:00,
2013-04-05 19:45:00,53.6,28.6,29.71,North,-999,20.0,23.0,38,0.00,,,0.00,5.00,VWS V14.01,2013-04-06 01:45:00,
2013-04-05 19:50:00,53.7,28.7,29.71,North,-999,15.0,21.0,38,0.00,,,0.00,0.00,VWS V14.01,2013-04-06 01:50:00,
2013-04-05 19:55:00,53.7,28.7,29.71,North,-999,16.0,23.0,38,0.00,,,0.00,0.00,VWS V14.01,2013-04-06 01:55:00,
2013-04-05 20:00:00,53.7,28.7,29.72,North,-999,18.0,20.0,38,0.00,,,0.00,0.00,VWS V14.01,2013-04-06 02:00:00,
2013-04-05 20:05:00,53.6,28.6,29.72,North,-999,15.0,20.0,38,0.00,,,0.00,0.00,VWS V14.01,2013-04-06 02:05:00,
2013-04-05 20:10:00,53.2,28.3,29.72,North,-999,19.0,19.0,38,0.00,,,0.00,0.00,VWS V14.01,2013-04-06 02:10:00,
2013-04-05 20:15:00,53.0,28.7,29.72,North,-999,15.0,19.0,39,0.00,,,0.00,0.00,VWS V14.01,2013-04-06 02:15:00,
2013-04-05 20:20:00,52.2,28.0,29.72,North,-999,13.0,14.0,39,0.00,,,0.00,0.00,VWS V14.01,2013-04-06 02:20:00,
2013-04-05 20:25:00,51.9,27.7,29.72,North,-999,12.0,14.0,39,0.00,,,0.00,0.00,VWS V14.01,2013-04-06 02:25:00,
2013-04-05 20:30:00,51.3,27.8,29.72,North,-999,12.0,12.0,40,0.00,,,0.00,0.00,VWS V14.01,2013-04-06 02:30:00,
2013-04-05 20:35:00,50.8,27.4,29.72,North,-999,11.0,13.0,40,0.00,,,0.00,0.00,VWS V14.01,2013-04-06 02:35:00,
2013-04-05 20:40:00,51.5,27.4,29.72,North,-999,9.0,13.0,39,0.00,,,0.00,0.00,VWS V14.01,2013-04-06 02:40:00,
2013-04-05 20:45:00,51.5,27.4,29.73,North,-999,9.0,13.0,39,0.00,,,0.00,0.00,VWS V14.01,2013-04-06 02:45:00,
2013-04-05 20:50:00,51.5,27.4,29.73,North,-999,10.0,13.0,39,0.00,,,0.00,0.00,VWS V14.01,2013-04-06 02:50:00,
2013-04-05 20:55:00,51.1,27.6,29.73,North,-999,14.0,16.0,40,0.00,,,0.00,0.00,VWS V14.01,2013-04-06 02:55:00,
2013-04-05 21:00:00,51.7,28.2,29.73,North,-999,12.0,19.0,40,0.00,,,0.00,0.00,VWS V14.01,2013-04-06 03:00:00,
2013-04-05 21:05:00,51.4,27.9,29.73,North,-999,14.0,19.0,40,0.00,,,0.00,0.00,VWS V14.01,2013-04-06 03:05:00,
2013-04-05 21:10:00,51.4,27.9,29.74,North,-999,10.0,15.0,40,0.00,,,0.00,0.00,VWS V14.01,2013-04-06 03:10:00,
2013-04-05 21:15:00,51.5,28.6,29.74,North,-999,13.0,15.0,41,0.00,,,0.00,0.00,VWS V14.01,2013-04-06 03:15:00,
2013-04-05 21:20:00,51.7,28.2,29.74,North,-999,11.0,13.0,40,0.00,,,0.00,0.00,VWS V14.01,2013-04-06 03:20:00,
2013-04-05 21:25:00,51.5,28.0,29.74,North,-999,10.0,16.0,40,0.00,,,0.00,0.00,VWS V14.01,2013-04-06 03:25:00,
2013-04-05 21:30:00,51.3,27.8,29.75,North,-999,13.0,14.0,40,0.00,,,0.00,0.00,VWS V14.01,2013-04-06 03:30:00,
2013-04-05 21:35:00,51.0,28.1,29.75,North,-999,9.0,14.0,41,0.00,,,0.00,0.00,VWS V14.01,2013-04-06 03:35:00,
2013-04-05 21:40:00,51.0,28.1,29.75,North,-999,10.0,14.0,41,0.00,,,0.00,0.00,VWS V14.01,2013-04-06 03:40:00,
2013-04-05 21:45:00,50.5,27.7,29.75,North,-999,12.0,14.0,41,0.00,,,0.00,0.00,VWS V14.01,2013-04-06 03:45:00,
2013-04-05 21:50:00,50.0,27.8,29.75,North,-999,11.0,15.0,42,0.00,,,0.00,0.00,VWS V14.01,2013-04-06 03:50:00,
2013-04-05 21:55:00,49.8,28.2,29.75,North,-999,13.0,16.0,43,0.00,,,0.00,0.00,VWS V14.01,2013-04-06 03:55:00,
2013-04-05 22:00:00,49.6,27.5,29.75,North,-999,11.0,14.0,42,0.00,,,0.00,0.00,VWS V14.01,2013-04-06 04:00:00,
2013-04-05 22:05:00,49.2,27.7,29.75,North,-999,17.0,17.0,43,0.00,,,0.00,0.00,VWS V14.01,2013-04-06 04:05:00,
2013-04-05 22:10:00,49.6,28.0,29.75,North,-999,16.0,18.0,43,0.00,,,0.00,0.00,VWS V14.01,2013-04-06 04:10:00,
2013-04-05 22:15:00,49.7,27.6,29.75,North,-999,13.0,18.0,42,0.00,,,0.00,0.00,VWS V14.01,2013-04-06 04:15:00,
2013-04-05 22:20:00,49.7,27.6,29.75,North,-999,14.0,17.0,42,0.00,,,0.00,0.00,VWS V14.01,2013-04-06 04:20:00,
2013-04-05 22:25:00,49.6,28.0,29.76,North,-999,13.0,18.0,43,0.00,,,0.00,0.00,VWS V14.01,2013-04-06 04:25:00,
2013-04-05 22:30:00,49.6,28.0,29.76,North,-999,11.0,14.0,43,0.00,,,0.00,0.00,VWS V14.01,2013-04-06 04:30:00,
2013-04-05 22:35:00,49.3,28.3,29.76,North,-999,11.0,15.0,44,0.00,,,0.00,0.00,VWS V14.01,2013-04-06 04:35:00,
2013-04-05 22:40:00,48.5,27.6,29.76,North,-999,12.0,12.0,44,0.00,,,0.00,0.00,VWS V14.01,2013-04-06 04:40:00,
2013-04-05 22:45:00,48.3,27.4,29.76,North,-999,11.0,13.0,44,0.00,,,0.00,0.00,VWS V14.01,2013-04-06 04:45:00,
2013-04-05 22:50:00,48.1,27.2,29.75,North,-999,10.0,11.0,44,0.00,,,0.00,0.00,VWS V14.01,2013-04-06 04:50:00,
2013-04-05 22:55:00,47.6,27.3,29.76,North,-999,11.0,13.0,45,0.00,,,0.00,0.00,VWS V14.01,2013-04-06 04:55:00,
2013-04-05 23:00:00,47.3,27.0,29.76,North,-999,11.0,12.0,45,0.00,,,0.00,0.00,VWS V14.01,2013-04-06 05:00:00,
2013-04-05 23:05:00,46.9,27.2,29.76,North,-999,13.0,15.0,46,0.00,,,0.00,0.00,VWS V14.01,2013-04-06 05:05:00,
2013-04-05 23:10:00,46.8,27.1,29.76,North,-999,8.0,11.0,46,0.00,,,0.00,0.00,VWS V14.01,2013-04-06 05:10:00,
2013-04-05 23:15:00,46.3,27.2,29.76,North,-999,9.0,11.0,47,0.00,,,0.00,0.00,VWS V14.01,2013-04-06 05:15:00,
2013-04-05 23:20:00,45.7,26.6,29.76,North,-999,9.0,10.0,47,0.00,,,0.00,0.00,VWS V14.01,2013-04-06 05:20:00,
2013-04-05 23:25:00,47.1,27.9,29.76,North,-999,17.0,18.0,47,0.00,,,0.00,0.00,VWS V14.01,2013-04-06 05:25:00,
2013-04-05 23:30:00,48.7,28.9,29.77,North,-999,13.0,18.0,46,0.00,,,0.00,0.00,VWS V14.01,2013-04-06 05:30:00,
2013-04-05 23:35:00,48.7,28.3,29.77,North,-999,15.0,18.0,45,0.00,,,0.00,0.00,VWS V14.01,2013-04-06 05:35:00,
2013-04-05 23:40:00,48.6,28.8,29.77,North,-999,15.0,18.0,46,0.00,,,0.00,0.00,VWS V14.01,2013-04-06 05:40:00,
2013-04-05 23:45:00,49.6,29.7,29.77,North,-999,13.0,22.0,46,0.00,,,0.00,0.00,VWS V14.01,2013-04-06 05:45:00,
2013-04-05 23:50:00,50.6,29.5,29.77,North,-999,15.0,20.0,44,0.00,,,0.00,0.00,VWS V14.01,2013-04-06 05:50:00,
2013-04-05 23:55:00,50.2,29.7,29.77,North,-999,13.0,20.0,45,0.00,,,0.00,0.00,VWS V14.01,2013-04-06 05:55:00,